Loisir ou Compétition : Rejoignez un Club de la Fédération

Résultats

SAMSE NATIONAL TOUR U16

AUTRANS

SPR Dames

Jury de Compétition

Délégué Technique :
MAGAND GUY (DA)
D.T. Adjoint :
VASSALLO CHRISTOPHE (MB)
Dir. Epreuve :
 
Chef Pas de Tir :
 

Caractéristiques de la Piste

Piste :
 
Distance :
6,0 km
Point Haut :
 
Point Bas :
 
Montée Tot. :
 
Montée Max. :
 
Homologation :
 

Pénalité Appliquée :
110.0000
Coefficient :
800

Catégorie :
U16
Style :
 
Type de Tir :
C-D
Clt Dos Clt/Cat Code An Nom Prénom Com Club Temps Pena Tps Tot Ecart Points
Classés
1 158 1/U16 FFS2641082 2001 POTTECHER ZELIE DA GUC GRENOBLE 21:52.6 0-0- - 21:52.6 00:00.0 110.00
2 163 2/U16 FFS2660755 2002 CLOETENS MAYA DA GUC GRENOBLE 21:59.0 0-0- - 21:59.0 00:06.4 113.90
3 139 3/U16 FFS2661475 2001 REMONNAY NOEMIE MJ OYE-PALLET 22:01.2 0-0- - 22:01.2 00:08.6 115.24
4 168 4/U16 FFS2659929 2002 CERDAN ANNOUK LY US CORMARANC 22:05.5 0-0- - 22:05.5 00:12.9 117.86
5 103 5/U16 FFS2644719 2002 RICHON CAPUCINE SA CS LA FECLAZ 22:10.5 0-0- - 22:10.5 00:17.9 120.91
6 144 6/U16 FFS2676225 2002 GIRAUD CLARA MJ PREMANON SC 22:10.6 0-0- - 22:10.6 00:18.0 120.97
7 133 7/U16 FFS2676608 2002 FORET JUSTINE MJ SMBM/MORBIER 22:11.9 0-0- - 22:11.9 00:19.3 121.76
8 143 8/U16 FFS2677081 2002 JEANNIER LEONIE MJ SC VERRIERES 22:17.3 0-0- - 22:17.3 00:24.7 125.05
9 134 9/U16 FFS2653734 2001 CHICHIGNOUD MARGOT DA US AUTRANNAI 22:19.1 0-0- - 22:19.1 00:26.5 126.15
10 160 10/U16 FFS2659922 2001 SUIFFET AMELIE SA CS LA FECLAZ 22:20.8 0-0- - 22:20.8 00:28.2 127.19
11 169 11/U16 FFS2670556 2002 PENDRY SHAWNA PE SC FTROMEUP2 22:29.8 0-0- - 22:29.8 00:37.2 132.67
12 106 12/U16 FFS2670898 2002 PIERREL JULIE MB SC GD BORNAN 22:31.0 0-0- - 22:31.0 00:38.4 133.40
13 159 13/U16 FFS2665303 2002 MICHELON OCEANE SA BAUGES S.N 22:37.4 0-0- - 22:37.4 00:44.8 137.30
14 121 14/U16 FFS2660687 2002 GRUNEWALD ELEONORE DA VERCORS SKF 22:46.6 0-0- - 22:46.6 00:54.0 142.91
15 179 15/U16 FFS2669529 2002 MOUGIN THEA MJ SC GRANDVAUX 22:55.0 0-0- - 22:55.0 01:02.4 148.03
16 111 16/U16 FFS2650562 2001 LANGEL CORALIE MJ SC MONT NOIR 22:56.4 0-0- - 22:56.4 01:03.8 148.88
17 149 17/U16 FFS2670554 2001 COUPE CAMILLE SA CS LA FECLAZ 22:57.3 0-0- - 22:57.3 01:04.7 149.43
18 120 18/U16 FFS2665310 2002 MUNIER ELODIE SA MONOLITHE SF 23:04.3 0-0- - 23:04.3 01:11.7 153.70
19 172 19/U16 FFS2655742 2002 GAULIER JULIETTE DA CS VILLARD 23:07.9 0-0- - 23:07.9 01:15.3 155.89
20 170 20/U16 FFS2655903 2002 BERTRAND FANY SA SC MERIBEL 23:08.6 0-0- - 23:08.6 01:16.0 156.32
21 105 21/U16 FFS2646236 2001 ANULLIERO DOLMA MB CS CHAMONIX 23:12.6 0-0- - 23:12.6 01:20.0 158.76
22 167 22/U16 FFS2654839 2002 GREAU ALIZEE LY SC BRENOD 23:14.5 0-0- - 23:14.5 01:21.9 159.92
23 125 23/U16 FFS2661517 2002 LAUTH EVA DA VERCORS SKF 23:16.4 0-0- - 23:16.4 01:23.8 161.07
24 148 24/U16 FFS2669786 2001 TOURNIER ROMANE MJ SC GRANDVAUX 23:17.0 0-0- - 23:17.0 01:24.4 161.44
25 117 25/U16 FFS2654837 2002 CHARVOLIN CANDICE LY SC BRENOD 23:20.0 0-0- - 23:20.0 01:27.4 163.27
26 130 26/U16 FFS2657180 2002 SIBERCHICOT LISA MJ PREMANON SC 23:26.0 0-0- - 23:26.0 01:33.4 166.93
27 140 27/U16 FFS2675560 2002 CHOUARD JULIETTE MJ SC GRANDVAUX 23:27.6 0-0- - 23:27.6 01:35.0 167.90
28 113 28/U16 FFS2644226 2001 FOULON ELISE DA CS VILLARD 23:28.2 0-0- - 23:28.2 01:35.6 168.27
29 116 29/U16 FFS2664314 2002 BARON FIONA MJ VAL MORTEAU 23:28.6 0-0- - 23:28.6 01:36.0 168.51
30 128 30/U16 FFS2676609 2002 CAT LENA MJ SC MONT NOIR 23:31.2 0-0- - 23:31.2 01:38.6 170.09
31 180 31/U16 FFS2675805 2002 BESANCON ALICE MJ OLYMP MT DOR 23:33.1 0-0- - 23:33.1 01:40.5 171.25
32 147 32/U16 FFS2670201 2001 JEANMONNOT LAURENT PRUNE MJ OLYMP MT DOR 23:33.9 0-0- - 23:33.9 01:41.3 171.74
33 164 33/U16 FFS2671448 2002 PATUREL DORINE MB SCNP ROCHOIS 23:36.4 0-0- - 23:36.4 01:43.8 173.26
34 141 34/U16 FFS2665311 2002 VIGNOL MANON SA MONOLITHE SF 23:39.0 0-0- - 23:39.0 01:46.4 174.85
35 137 35/U16 FFS2665353 2001 LECOQ JAMMES NEMO MB CS CHAMONIX 23:40.5 0-0- - 23:40.5 01:47.9 175.76
36 162 36/U16 FFS2682651 2002 MORRAL FERANDIS MARIONA PE SC FTROMEUP2 23:41.3 0-0- - 23:41.3 01:48.7 176.25
37 151 37/U16 FFS2671188 2002 PELLEGRINI AUGUSTINE MJ OYE-PALLET 23:47.0 0-0- - 23:47.0 01:54.4 179.72
38 110 38/U16 FFS2652071 2002 RICHARD JEANNE MB LES GETS S.C 23:47.9 0-0- - 23:47.9 01:55.3 180.27
39 138 39/U16 FFS2639569 2001 HENAFF ELOISE SA SC ARECHES 23:50.6 0-0- - 23:50.6 01:58.0 181.92
40 129 40/U16 FFS2665256 2001 CRETIN MAITENAZ JULIE MJ SMBM/MORBIER 23:57.0 0-0- - 23:57.0 02:04.4 185.82
41 115 41/U16 FFS2670906 2002 PLACE ISELINE MB SC GD BORNAN 24:04.6 0-0- - 24:04.6 02:12.0 190.45
42 153 42/U16 FFS2670903 2002 CROS JEANNE MB SC GD BORNAN 24:08.3 0-0- - 24:08.3 02:15.7 192.71
43 177 43/U16 FFS2670902 2002 BASTARD ROSSET LUCIE MB SC GD BORNAN 24:13.2 0-0- - 24:13.2 02:20.6 195.69
44 108 44/U16 FFS2661438 2001 FAVRE FLORINE SA SC ARECHES 24:15.0 0-0- - 24:15.0 02:22.4 196.79
45 171 45/U16 FFS2670308 2002 SCHEURER FLORIANE MV MOLSHEIM SN 24:20.6 0-0- - 24:20.6 02:28.0 200.20
46 146 46/U16 FFS2663450 2002 GRISNAUX YSALINE SA SC MENUIRES 24:21.8 0-0- - 24:21.8 02:29.2 200.93
47 112 47/U16 FFS2647523 2001 BONDIER GIRARD NOA SA SC MENUIRES 24:25.9 0-0- - 24:25.9 02:33.3 203.43
48 176 48/U16 FFS2649489 2002 GAILLARD MARGAUX DA SA MEAUDRAIS 24:27.2 0-0- - 24:27.2 02:34.6 204.23
49 136 49/U16 FFS2665301 2002 RAMAZ ADELAIDE SA BAUGES S.N 24:29.8 0-0- - 24:29.8 02:37.2 205.81
50 135 50/U16 FFS2655708 2002 NIOGRET AGATHE LY CS VALROMEY 24:31.8 0-0- - 24:31.8 02:39.2 207.03
51 165 51/U16 FFS2656647 2001 MARTIN CHENAULT PAULA PE SC FTROMEUP2 24:32.8 0-0- - 24:32.8 02:40.2 207.64
52 102 52/U16 FFS2647512 2002 CHAPPAZ FELICIE MB CS LA CLUSAZ 24:36.3 0-0- - 24:36.3 02:43.7 209.77
53 174 53/U16 FFS2671033 2002 DUPONT LOUNA DA CS VILLARD 24:37.4 0-0- - 24:37.4 02:44.8 210.44
54 155 54/U16 FFS2644094 2002 FORTINA NOEE MB SC CONTAMINE 24:38.9 0-0- - 24:38.9 02:46.3 211.36
55 166 55/U16 FFS2664568 2002 TRIBOULOT JEANNE MV GERARDMER SN 24:43.2 0-0- - 24:43.2 02:50.6 213.98
56 118 56/U16 FFS2665618 2001 CAMPION LEANA PE SC FTROMEUP2 24:44.2 0-0- - 24:44.2 02:51.6 214.59
57 109 57/U16 FFS2670897 2002 FAVRE BONVIN ZOE MB SC GD BORNAN 24:50.5 0-0- - 24:50.5 02:57.9 218.43
58 131 58/U16 FFS2671450 2002 SYLVESTRE BARON CLAIRE MB SCNP ROCHOIS 24:55.5 0-0- - 24:55.5 03:02.9 221.47
59 104 59/U16 FFS2654873 2002 GROSSET LINA MB CS MEGEVE 24:58.0 0-0- - 24:58.0 03:05.4 223.00
60 122 60/U16 FFS2661232 2002 JEANGEORGES ANAIS MV BASS/RUPT SN 25:03.9 0-0- - 25:03.9 03:11.3 226.59
61 119 61/U16 FFS2665904 2001 REVILLIOD ALBANE MB CS CHAMONIX 25:10.7 0-0- - 25:10.7 03:18.1 230.74
62 175 62/U16 FFS2666106 2002 VIGNEAU LUCIE MB CHABLAIS NOR 25:24.5 0-0- - 25:24.5 03:31.9 239.15
63 152 63/U16 FFS2669082 2002 ELOY LILOU SA COURCHEVEL 25:37.3 0-0- - 25:37.3 03:44.7 246.95
64 124 64/U16 FFS2674592 2002 FLAISSIER LOU MB CS CHAMONIX 25:39.5 0-0- - 25:39.5 03:46.9 248.29
65 145 65/U16 FFS2670312 2001 AUBEL LILAS MV MOLSHEIM SN 25:50.5 0-0- - 25:50.5 03:57.9 254.99
66 132 66/U16 FFS2660021 2002 BOUSSARD CAPUCINE MV GERARDMER SN 26:01.8 0-0- - 26:01.8 04:09.2 261.88
67 150 67/U16 FFS2671406 2002 ECHE HELOISE MB CS CHAMONIX 26:05.4 0-0- - 26:05.4 04:12.8 264.08
68 156 68/U16 FFS2671069 2002 BLONDAZ BLANDINE MB CS CHAMONIX 26:56.2 0-0- - 26:56.2 05:03.6 295.04
69 123 69/U16 FFS2670734 2002 APPLAGNAT FLAVIE MB SC CONTAMINE 27:18.8 0-0- - 27:18.8 05:26.2 308.81
70 126 70/U16 FFS2626639 2001 PARENT MATHILDE MB SC CONTAMINE 27:27.4 0-0- - 27:27.4 05:34.8 314.05
71 173 71/U16 FFS2652793 2002 PERRET MELISSA DA SNO 28:06.0 0-0- - 28:06.0 06:13.4 337.58
72 114 72/U16 FFS2667667 2002 DEMBOURG LUCIE PE SC FTROMEUP2 28:21.9 0-0- - 28:21.9 06:29.3 347.27
73 154 73/U16 FFS2671130 2002 MERMOUD AMANDINE MB CS CHAMONIX 28:26.3 0-0- - 28:26.3 06:33.7 349.95
74 101 74/U16 FFS2661053 2002 VOUILLAMOZ MARIE MB SALLANCHES 28:46.3 0-0- - 28:46.3 06:53.7 362.14
Non traités
107 FFS2664153 2002 DUBOIS LOUNA DA CS VILLARD
127 FFS2670597 2002 SAYSSAC CLARA MB CS CHAMONIX
142 FFS2670559 2002 SAMSON EMMA PE SC FTROMEUP2
157 FFS2649397 2001 CARRIER ROMANE LY SC BRENOD
161 FFS2644194 2002 PAVARANI JULIETTE MB SC CONTAMINE
178 FFS2680651 2002 SERRETTE LISA MJ PREMANON SC